Time;durP1;ratioP1;P1;durP2;ratioP2;P2;SDS_P1;SDS_P2;PMS_P1;PMS_P2;Temp;Humidity;BMP_temperature;BMP_pressure;BME280_temperature;BME280_humidity;BME280_pressure;Samples;Min_cycle;Max_cycle;Signal;HPM_P1;HPM_P2
2022/03/28 00:00:06;;;;;;;13.52;6.88;;;;;;;;;;5051573;28;20064;-90
2022/03/28 00:02:33;;;;;;;11.80;7.85;;;;;;;;;;5046636;28;20127;-91
2022/03/28 00:05:01;;;;;;;15.38;7.07;;;;;;;;;;5051186;28;20143;-92
2022/03/28 00:07:28;;;;;;;12.02;7.18;;;;;;;;;;5048060;28;20099;-90
2022/03/28 00:09:55;;;;;;;10.93;6.25;;;;;;;;;;5048299;28;20106;-90
2022/03/28 00:12:22;;;;;;;11.63;6.75;;;;;;;;;;5068581;28;20041;-90
2022/03/28 00:14:50;;;;;;;14.65;7.03;;;;;;;;;;5049885;28;20049;-91
2022/03/28 00:17:17;;;;;;;13.60;6.53;;;;;;;;;;5049702;28;20045;-91
2022/03/28 00:19:45;;;;;;;12.25;6.05;;;;;;;;;;5046395;28;20045;-89
2022/03/28 00:22:12;;;;;;;12.68;7.03;;;;;;;;;;5047206;28;20483;-89
2022/03/28 00:24:39;;;;;;;10.95;6.25;;;;;;;;;;5049495;28;20131;-89
2022/03/28 00:27:07;;;;;;;14.68;6.57;;;;;;;;;;5049536;28;20099;-88
2022/03/28 00:29:34;;;;;;;13.00;6.70;;;;;;;;;;5051036;28;20040;-90
2022/03/28 00:32:01;;;;;;;15.48;5.97;;;;;;;;;;5048759;28;20049;-90
2022/03/28 00:34:28;;;;;;;12.63;6.32;;;;;;;;;;5049791;28;20049;-89
2022/03/28 00:36:56;;;;;;;15.27;6.30;;;;;;;;;;5049010;28;20126;-90
2022/03/28 00:39:23;;;;;;;12.65;6.07;;;;;;;;;;5050167;28;20140;-91
2022/03/28 00:41:51;;;;;;;15.10;6.28;;;;;;;;;;5049820;28;20049;-91
2022/03/28 00:44:19;;;;;;;11.50;6.53;;;;;;;;;;5052950;28;20049;-91
2022/03/28 00:46:46;;;;;;;12.52;6.18;;;;;;;;;;5050852;28;20037;-90
2022/03/28 00:49:14;;;;;;;15.93;6.95;;;;;;;;;;5051392;28;20056;-90
2022/03/28 00:51:41;;;;;;;15.10;6.72;;;;;;;;;;5047926;28;20064;-91
2022/03/28 00:54:09;;;;;;;15.00;6.85;;;;;;;;;;5054180;28;20044;-90
2022/03/28 00:56:37;;;;;;;11.77;6.75;;;;;;;;;;5047216;28;20076;-90
2022/03/28 00:59:05;;;;;;;13.88;6.53;;;;;;;;;;5050495;28;20124;-90
2022/03/28 01:01:32;;;;;;;18.38;7.13;;;;;;;;;;5048425;28;20494;-89
2022/03/28 01:03:59;;;;;;;13.50;6.70;;;;;;;;;;5051917;28;20091;-89
2022/03/28 01:06:27;;;;;;;12.82;7.07;;;;;;;;;;5045920;28;20041;-89
2022/03/28 01:08:54;;;;;;;13.80;6.75;;;;;;;;;;5052214;28;20077;-91
2022/03/28 01:11:22;;;;;;;20.75;7.45;;;;;;;;;;5052730;28;20041;-92
2022/03/28 01:13:49;;;;;;;13.30;7.32;;;;;;;;;;5054423;28;20041;-92
2022/03/28 01:16:16;;;;;;;12.63;6.75;;;;;;;;;;5048344;28;20057;-91
2022/03/28 01:18:50;;;;;;;15.48;6.45;;;;;;;;;;5046515;28;20049;-83
2022/03/28 01:21:20;;;;;;;14.52;5.72;;;;;;;;;;5039465;28;20739;-83
2022/03/28 01:23:47;;;;;;;15.98;6.63;;;;;;;;;;5040834;28;20079;-82
2022/03/28 01:26:16;;;;;;;14.20;6.60;;;;;;;;;;5039796;28;20495;-82
2022/03/28 01:28:43;;;;;;;9.55;5.55;;;;;;;;;;5040591;28;20083;-83
2022/03/28 01:31:10;;;;;;;11.43;5.95;;;;;;;;;;5040854;28;20136;-83
2022/03/28 01:33:37;;;;;;;11.95;6.15;;;;;;;;;;5042823;28;20402;-83
2022/03/28 01:36:05;;;;;;;12.65;6.38;;;;;;;;;;5040734;28;20481;-83
2022/03/28 01:38:32;;;;;;;8.90;5.38;;;;;;;;;;5041521;28;20547;-83
2022/03/28 01:40:59;;;;;;;12.60;5.63;;;;;;;;;;5041765;28;20132;-83
2022/03/28 01:43:26;;;;;;;16.30;6.25;;;;;;;;;;5039963;28;20139;-84
2022/03/28 01:45:54;;;;;;;12.00;6.28;;;;;;;;;;5037120;28;20693;-83
2022/03/28 01:48:21;;;;;;;14.18;6.05;;;;;;;;;;5039229;28;20099;-83
2022/03/28 01:50:48;;;;;;;13.57;6.82;;;;;;;;;;5035895;28;20135;-84
2022/03/28 01:53:15;;;;;;;12.45;6.30;;;;;;;;;;5040311;28;20474;-83
2022/03/28 01:55:43;;;;;;;13.18;6.20;;;;;;;;;;5037774;28;20045;-83
2022/03/28 01:58:10;;;;;;;12.48;6.13;;;;;;;;;;5043956;28;20099;-83
2022/03/28 02:00:37;;;;;;;14.52;5.80;;;;;;;;;;5040107;28;20507;-84
2022/03/28 02:03:05;;;;;;;17.52;6.18;;;;;;;;;;5035202;28;20052;-83
2022/03/28 02:05:32;;;;;;;12.30;6.07;;;;;;;;;;5036407;28;20503;-83
2022/03/28 02:07:59;;;;;;;10.30;5.78;;;;;;;;;;5042648;28;20037;-83
2022/03/28 02:10:27;;;;;;;11.85;6.43;;;;;;;;;;5033717;28;20076;-83
2022/03/28 02:12:54;;;;;;;12.93;6.50;;;;;;;;;;5036191;28;20128;-83
2022/03/28 02:15:22;;;;;;;12.40;6.20;;;;;;;;;;5038168;28;20111;-83
2022/03/28 02:17:49;;;;;;;15.02;5.90;;;;;;;;;;5036846;28;20065;-83
2022/03/28 02:20:17;;;;;;;12.02;6.40;;;;;;;;;;5035919;28;20069;-83
2022/03/28 02:22:46;;;;;;;10.45;6.07;;;;;;;;;;5034834;28;20057;-83
2022/03/28 02:25:15;;;;;;;11.00;6.32;;;;;;;;;;5038113;28;20064;-83
2022/03/28 02:27:43;;;;;;;13.68;7.07;;;;;;;;;;5039925;28;20459;-83
2022/03/28 02:30:11;;;;;;;14.88;6.88;;;;;;;;;;5039103;28;20045;-83
2022/03/28 02:32:40;;;;;;;13.15;6.43;;;;;;;;;;5037817;28;20052;-83
2022/03/28 02:35:08;;;;;;;13.93;6.90;;;;;;;;;;5041343;28;20045;-82
2022/03/28 02:37:36;;;;;;;12.15;6.22;;;;;;;;;;5038461;28;20083;-83
2022/03/28 02:40:04;;;;;;;14.85;6.68;;;;;;;;;;5040126;28;20068;-83
2022/03/28 02:42:31;;;;;;;14.80;6.28;;;;;;;;;;5038976;28;20056;-82
2022/03/28 02:44:58;;;;;;;12.52;5.57;;;;;;;;;;5038590;28;20083;-82
2022/03/28 02:47:26;;;;;;;14.40;6.40;;;;;;;;;;5036556;28;20076;-82
2022/03/28 02:49:53;;;;;;;14.55;6.35;;;;;;;;;;5036644;28;20041;-82
2022/03/28 02:52:22;;;;;;;11.98;5.60;;;;;;;;;;5037150;28;20049;-82
2022/03/28 02:54:50;;;;;;;12.75;5.90;;;;;;;;;;5038214;28;20160;-82
2022/03/28 02:57:17;;;;;;;10.55;5.90;;;;;;;;;;5039710;28;20094;-82
2022/03/28 02:59:44;;;;;;;16.38;5.13;;;;;;;;;;5035584;28;21481;-83
2022/03/28 03:02:12;;;;;;;10.68;5.18;;;;;;;;;;5040945;28;20092;-82
2022/03/28 03:04:39;;;;;;;12.73;5.90;;;;;;;;;;5038935;28;20045;-82
2022/03/28 03:07:06;;;;;;;12.32;5.75;;;;;;;;;;5037814;28;20045;-82
2022/03/28 03:09:34;;;;;;;12.25;4.88;;;;;;;;;;5036529;28;20147;-83
2022/03/28 03:12:01;;;;;;;10.30;4.55;;;;;;;;;;5052674;28;20053;-82
2022/03/28 03:14:28;;;;;;;12.65;5.18;;;;;;;;;;5038562;28;20087;-83
2022/03/28 03:16:55;;;;;;;8.50;4.50;;;;;;;;;;5037219;28;20053;-83
2022/03/28 03:19:23;;;;;;;15.93;5.43;;;;;;;;;;5035316;28;20139;-82
2022/03/28 03:21:50;;;;;;;14.85;5.60;;;;;;;;;;5037668;28;20118;-83
2022/03/28 03:24:18;;;;;;;12.57;5.32;;;;;;;;;;5035718;28;20072;-83
2022/03/28 03:26:45;;;;;;;14.27;5.63;;;;;;;;;;5038027;28;20077;-83
2022/03/28 03:29:12;;;;;;;12.95;5.47;;;;;;;;;;5034622;28;20080;-83
2022/03/28 03:31:40;;;;;;;11.98;5.10;;;;;;;;;;5038099;28;20132;-83
2022/03/28 03:34:07;;;;;;;10.77;5.70;;;;;;;;;;5035881;28;20051;-83
2022/03/28 03:36:35;;;;;;;17.48;5.25;;;;;;;;;;5038574;28;20136;-83
2022/03/28 03:39:03;;;;;;;11.50;6.00;;;;;;;;;;5038879;28;20057;-82
2022/03/28 03:41:30;;;;;;;13.40;5.70;;;;;;;;;;5037932;28;21095;-83
2022/03/28 03:43:58;;;;;;;17.70;7.05;;;;;;;;;;5038247;28;20087;-83
2022/03/28 03:46:25;;;;;;;10.00;5.95;;;;;;;;;;5037334;28;20100;-82
2022/03/28 03:48:57;;;;;;;11.27;4.47;;;;;;;;;;5040009;28;20055;-83
2022/03/28 03:51:25;;;;;;;10.38;5.50;;;;;;;;;;5046406;28;20050;-91
2022/03/28 03:53:52;;;;;;;9.80;5.38;;;;;;;;;;5056087;28;20107;-91
2022/03/28 03:56:19;;;;;;;12.25;5.28;;;;;;;;;;5045551;28;20053;-90
2022/03/28 03:58:46;;;;;;;11.43;5.05;;;;;;;;;;5045283;28;20144;-91
2022/03/28 04:01:14;;;;;;;14.90;5.43;;;;;;;;;;5040917;28;20053;-91
2022/03/28 04:03:41;;;;;;;12.70;5.72;;;;;;;;;;5038350;28;20045;-91
2022/03/28 04:06:10;;;;;;;9.23;5.13;;;;;;;;;;5038219;28;21733;-91
2022/03/28 04:08:38;;;;;;;18.67;5.93;;;;;;;;;;5042194;28;20033;-90
2022/03/28 04:11:06;;;;;;;14.02;4.90;;;;;;;;;;5042393;28;20061;-90
2022/03/28 04:13:34;;;;;;;12.65;5.25;;;;;;;;;;5041727;28;20122;-90
2022/03/28 04:16:01;;;;;;;10.88;4.68;;;;;;;;;;5045893;28;20151;-89
2022/03/28 04:18:29;;;;;;;14.98;5.10;;;;;;;;;;5045562;28;20099;-90
2022/03/28 04:20:56;;;;;;;16.58;5.40;;;;;;;;;;5048269;28;20072;-90
2022/03/28 04:23:24;;;;;;;13.77;5.45;;;;;;;;;;5044342;28;20451;-89
2022/03/28 04:25:52;;;;;;;8.48;4.93;;;;;;;;;;5046808;28;20045;-90
2022/03/28 04:28:19;;;;;;;11.55;5.13;;;;;;;;;;5048615;28;20081;-88
2022/03/28 04:30:46;;;;;;;14.20;5.57;;;;;;;;;;5049987;28;20157;-90
2022/03/28 04:33:14;;;;;;;14.68;5.38;;;;;;;;;;5045738;28;20060;-91
2022/03/28 04:35:43;;;;;;;19.38;6.15;;;;;;;;;;5048512;28;20103;-89
2022/03/28 04:38:10;;;;;;;14.00;6.00;;;;;;;;;;5045093;28;20490;-90
2022/03/28 04:40:37;;;;;;;18.05;6.60;;;;;;;;;;5051503;28;20050;-89
2022/03/28 04:43:05;;;;;;;20.80;6.97;;;;;;;;;;5053300;28;20107;-88
2022/03/28 04:45:32;;;;;;;14.90;6.53;;;;;;;;;;5051924;28;20045;-89
2022/03/28 04:48:01;;;;;;;13.88;6.50;;;;;;;;;;5055517;28;20128;-89
2022/03/28 04:50:28;;;;;;;22.65;6.35;;;;;;;;;;5053386;28;20053;-91
2022/03/28 04:52:56;;;;;;;18.23;8.10;;;;;;;;;;5050439;28;20049;-88
2022/03/28 04:55:29;;;;;;;17.20;8.02;;;;;;;;;;5055213;28;20044;-91
2022/03/28 04:57:57;;;;;;;17.58;7.50;;;;;;;;;;5064169;28;20045;-92
2022/03/28 05:00:24;;;;;;;23.23;8.88;;;;;;;;;;5049342;28;20419;-91
2022/03/28 05:06:20;;;;;;;16.27;7.93;;;;;;;;;;5177647;22;20108;-73
2022/03/28 05:08:49;;;;;;;14.35;7.95;;;;;;;;;;5040813;28;20087;-76
2022/03/28 05:11:16;;;;;;;21.55;7.32;;;;;;;;;;5033225;28;20874;-75
2022/03/28 05:13:43;;;;;;;13.02;6.90;;;;;;;;;;5037934;28;20069;-77
2022/03/28 05:16:10;;;;;;;11.15;6.10;;;;;;;;;;5034479;28;20169;-75
2022/03/28 05:18:38;;;;;;;16.30;7.15;;;;;;;;;;5042930;28;20156;-75
2022/03/28 05:21:07;;;;;;;17.02;7.07;;;;;;;;;;5035285;28;20148;-74
2022/03/28 05:23:35;;;;;;;18.35;7.63;;;;;;;;;;5042352;28;20071;-76
2022/03/28 05:26:04;;;;;;;16.75;6.50;;;;;;;;;;5038622;28;20053;-80
2022/03/28 05:28:35;;;;;;;16.85;7.20;;;;;;;;;;5046170;28;20114;-80
2022/03/28 05:31:02;;;;;;;20.55;7.70;;;;;;;;;;5045616;28;20091;-83
2022/03/28 05:33:29;;;;;;;18.02;7.05;;;;;;;;;;5048514;28;20137;-86
2022/03/28 05:35:57;;;;;;;13.68;7.30;;;;;;;;;;5045702;28;20164;-83
2022/03/28 05:38:25;;;;;;;17.95;6.82;;;;;;;;;;5040882;28;20040;-81
2022/03/28 05:40:55;;;;;;;11.63;6.53;;;;;;;;;;5043820;28;20577;-81
2022/03/28 05:43:24;;;;;;;17.98;6.55;;;;;;;;;;5045828;28;20048;-86
2022/03/28 05:45:54;;;;;;;14.90;6.15;;;;;;;;;;5048128;28;20048;-84
2022/03/28 05:48:22;;;;;;;14.77;6.43;;;;;;;;;;5046438;28;20056;-81
2022/03/28 05:50:49;;;;;;;13.32;6.47;;;;;;;;;;5043704;28;20049;-82
2022/03/28 05:53:16;;;;;;;15.57;6.63;;;;;;;;;;5044597;28;20048;-82
2022/03/28 05:55:44;;;;;;;14.63;6.50;;;;;;;;;;5043199;28;20085;-81
2022/03/28 05:58:11;;;;;;;16.33;6.25;;;;;;;;;;5043980;28;20072;-80
2022/03/28 06:00:39;;;;;;;10.35;6.30;;;;;;;;;;5043186;28;20053;-79
2022/03/28 06:03:06;;;;;;;14.23;6.20;;;;;;;;;;5042904;28;20049;-81
2022/03/28 06:05:54;;;;;;;15.73;6.38;;;;;;;;;;5046844;28;20167;-84
2022/03/28 06:08:21;;;;;;;13.18;6.15;;;;;;;;;;5061846;28;20102;-82
2022/03/28 06:10:48;;;;;;;14.73;6.15;;;;;;;;;;5043264;28;20493;-81
2022/03/28 06:13:17;;;;;;;12.35;5.80;;;;;;;;;;5043594;28;20059;-80
2022/03/28 06:15:44;;;;;;;20.95;6.43;;;;;;;;;;5040505;28;20119;-80
2022/03/28 06:18:12;;;;;;;13.45;6.05;;;;;;;;;;5041176;28;20048;-80
2022/03/28 06:20:39;;;;;;;12.50;5.90;;;;;;;;;;5032253;28;20770;-81
2022/03/28 06:23:09;;;;;;;11.55;5.82;;;;;;;;;;5044307;28;20049;-80
2022/03/28 06:25:37;;;;;;;13.23;6.60;;;;;;;;;;5034620;28;20048;-80
2022/03/28 06:28:04;;;;;;;17.55;6.68;;;;;;;;;;5045243;28;20076;-80
2022/03/28 06:30:31;;;;;;;21.00;6.57;;;;;;;;;;5042881;28;20195;-80
2022/03/28 06:32:59;;;;;;;16.10;7.28;;;;;;;;;;5041646;28;20152;-80
2022/03/28 06:35:26;;;;;;;17.35;7.47;;;;;;;;;;5041168;28;20091;-80
2022/03/28 06:37:54;;;;;;;13.80;6.95;;;;;;;;;;5043912;28;20168;-80
2022/03/28 06:40:21;;;;;;;18.17;8.05;;;;;;;;;;5038047;28;20127;-80
2022/03/28 06:42:49;;;;;;;16.23;7.05;;;;;;;;;;5035036;28;20057;-80
2022/03/28 06:45:17;;;;;;;21.73;8.93;;;;;;;;;;5042822;28;20130;-80
2022/03/28 06:47:51;;;;;;;15.77;7.18;;;;;;;;;;5034504;28;20052;-80
2022/03/28 06:50:20;;;;;;;17.27;6.88;;;;;;;;;;5035488;28;20045;-80
2022/03/28 06:52:48;;;;;;;18.73;7.63;;;;;;;;;;5041267;28;20053;-81
2022/03/28 06:55:15;;;;;;;17.33;7.63;;;;;;;;;;5041123;28;20420;-80
2022/03/28 06:57:42;;;;;;;17.90;7.72;;;;;;;;;;5039183;28;20605;-80
2022/03/28 07:00:13;;;;;;;18.90;7.47;;;;;;;;;;5041355;28;20099;-81
2022/03/28 07:02:41;;;;;;;14.18;6.63;;;;;;;;;;5042654;28;20056;-80
2022/03/28 07:05:09;;;;;;;15.98;7.10;;;;;;;;;;5042262;28;20046;-80
2022/03/28 07:07:43;;;;;;;16.88;7.20;;;;;;;;;;5040114;28;20092;-80
2022/03/28 07:10:11;;;;;;;15.10;6.75;;;;;;;;;;5040250;28;20124;-80
2022/03/28 07:12:38;;;;;;;16.98;6.53;;;;;;;;;;5045099;28;20060;-80
2022/03/28 07:15:07;;;;;;;15.20;7.32;;;;;;;;;;5041050;28;20136;-79
2022/03/28 07:17:51;;;;;;;13.73;6.05;;;;;;;;;;5038541;28;20128;-79
2022/03/28 07:20:21;;;;;;;13.35;5.50;;;;;;;;;;5040953;28;20041;-80
2022/03/28 07:22:48;;;;;;;12.75;5.35;;;;;;;;;;5045683;28;20159;-81
2022/03/28 07:25:15;;;;;;;11.57;5.10;;;;;;;;;;5032321;28;20682;-80
2022/03/28 07:27:43;;;;;;;9.65;4.97;;;;;;;;;;5035058;28;20136;-80
2022/03/28 07:30:10;;;;;;;11.05;5.53;;;;;;;;;;5038538;28;20136;-80
2022/03/28 07:32:38;;;;;;;8.80;5.05;;;;;;;;;;5034575;28;20061;-80
2022/03/28 07:35:06;;;;;;;17.20;5.97;;;;;;;;;;5039996;28;20049;-80
2022/03/28 07:37:34;;;;;;;15.63;6.22;;;;;;;;;;5040854;28;20132;-80
2022/03/28 07:40:02;;;;;;;11.25;5.60;;;;;;;;;;5037919;28;20095;-80
2022/03/28 07:42:30;;;;;;;15.65;5.55;;;;;;;;;;5032157;28;20133;-80
2022/03/28 07:44:57;;;;;;;10.25;4.78;;;;;;;;;;5044257;28;20047;-80
2022/03/28 07:47:25;;;;;;;11.25;4.85;;;;;;;;;;5040520;28;20141;-80
2022/03/28 07:49:53;;;;;;;7.97;4.60;;;;;;;;;;5039564;28;21773;-80
2022/03/28 07:52:23;;;;;;;12.48;5.07;;;;;;;;;;5046976;28;20049;-80
2022/03/28 07:54:51;;;;;;;11.45;5.28;;;;;;;;;;5042871;28;20131;-81
2022/03/28 07:57:19;;;;;;;15.30;4.90;;;;;;;;;;5042996;28;20126;-80
2022/03/28 07:59:47;;;;;;;10.73;4.53;;;;;;;;;;5043209;28;20080;-80
2022/03/28 08:02:34;;;;;;;13.63;4.88;;;;;;;;;;5043457;28;20056;-81
2022/03/28 08:05:02;;;;;;;16.98;4.70;;;;;;;;;;5045361;28;20056;-81
2022/03/28 08:07:29;;;;;;;9.95;4.55;;;;;;;;;;5044900;28;20052;-81
2022/03/28 08:09:57;;;;;;;11.02;4.28;;;;;;;;;;5046692;28;20083;-80
2022/03/28 08:12:24;;;;;;;16.85;4.50;;;;;;;;;;5042539;28;20053;-80
2022/03/28 08:14:51;;;;;;;8.50;4.82;;;;;;;;;;5042412;28;20052;-80
2022/03/28 08:17:19;;;;;;;16.17;5.07;;;;;;;;;;5044554;28;20058;-80
2022/03/28 08:19:47;;;;;;;11.85;4.60;;;;;;;;;;5043465;28;20047;-80
2022/03/28 08:22:15;;;;;;;10.63;4.65;;;;;;;;;;5043686;28;20832;-80
2022/03/28 08:24:42;;;;;;;13.75;5.10;;;;;;;;;;5042077;28;20067;-80
2022/03/28 08:27:09;;;;;;;12.60;5.55;;;;;;;;;;5048361;28;20147;-80
2022/03/28 08:29:37;;;;;;;15.85;5.72;;;;;;;;;;5045364;28;20076;-80
2022/03/28 08:32:04;;;;;;;10.43;4.75;;;;;;;;;;5038211;28;20536;-80
2022/03/28 08:34:36;;;;;;;10.77;4.68;;;;;;;;;;5042527;28;20044;-79
2022/03/28 08:37:04;;;;;;;13.13;5.00;;;;;;;;;;5040907;28;20053;-80
2022/03/28 08:39:31;;;;;;;9.77;4.80;;;;;;;;;;5036303;28;20514;-79
2022/03/28 08:41:59;;;;;;;13.82;4.72;;;;;;;;;;5042931;28;20079;-79
2022/03/28 08:44:27;;;;;;;11.40;4.60;;;;;;;;;;5042185;28;20080;-79
2022/03/28 08:46:55;;;;;;;7.25;3.58;;;;;;;;;;5038550;28;20053;-80
2022/03/28 08:49:23;;;;;;;10.07;4.32;;;;;;;;;;5037814;28;20061;-80
2022/03/28 08:51:51;;;;;;;6.97;4.07;;;;;;;;;;5044222;28;20136;-80
2022/03/28 08:54:19;;;;;;;8.45;4.28;;;;;;;;;;5042891;28;20081;-80
2022/03/28 08:56:47;;;;;;;7.95;4.03;;;;;;;;;;5041818;28;20158;-80
2022/03/28 08:59:15;;;;;;;13.18;4.90;;;;;;;;;;5036991;28;20057;-80
2022/03/28 09:01:45;;;;;;;10.57;3.80;;;;;;;;;;5042421;28;20069;-80
2022/03/28 09:04:15;;;;;;;4.75;3.72;;;;;;;;;;5043500;28;20069;-80
2022/03/28 09:06:43;;;;;;;10.45;4.32;;;;;;;;;;5044038;28;20072;-80
2022/03/28 09:09:21;;;;;;;9.00;4.15;;;;;;;;;;5044136;28;20989;-80
2022/03/28 09:11:53;;;;;;;10.70;4.28;;;;;;;;;;5046633;28;20502;-81
2022/03/28 09:14:24;;;;;;;7.55;3.83;;;;;;;;;;5038835;28;20123;-80
2022/03/28 09:17:18;;;;;;;10.45;4.28;;;;;;;;;;5035765;28;20081;-80
2022/03/28 09:19:57;;;;;;;8.75;5.15;;;;;;;;;;5043015;28;20513;-80
2022/03/28 09:22:25;;;;;;;12.73;4.35;;;;;;;;;;5038566;28;20053;-81
2022/03/28 09:24:54;;;;;;;10.98;4.18;;;;;;;;;;5042279;28;20136;-80
2022/03/28 09:27:22;;;;;;;12.27;4.55;;;;;;;;;;5040094;28;20049;-81
2022/03/28 09:29:55;;;;;;;13.50;4.63;;;;;;;;;;5038957;28;20049;-80
2022/03/28 09:32:24;;;;;;;7.75;4.18;;;;;;;;;;5039728;28;20084;-80
2022/03/28 09:35:10;;;;;;;8.20;3.80;;;;;;;;;;5043657;28;20128;-80
2022/03/28 09:37:57;;;;;;;7.53;4.22;;;;;;;;;;5033006;28;20139;-79
2022/03/28 09:40:25;;;;;;;5.60;3.85;;;;;;;;;;5035317;28;20176;-79
2022/03/28 09:42:52;;;;;;;10.38;4.05;;;;;;;;;;5033009;28;20072;-79
2022/03/28 09:45:20;;;;;;;9.07;3.72;;;;;;;;;;5034522;28;20076;-79
2022/03/28 09:47:55;;;;;;;5.13;3.63;;;;;;;;;;5034112;28;20130;-79
2022/03/28 09:50:32;;;;;;;6.95;3.30;;;;;;;;;;5029966;28;20696;-79
2022/03/28 09:53:16;;;;;;;7.63;3.33;;;;;;;;;;5035171;28;20059;-80
2022/03/28 09:55:54;;;;;;;10.75;3.22;;;;;;;;;;5037431;28;20960;-79
2022/03/28 09:58:31;;;;;;;7.03;3.35;;;;;;;;;;5039332;28;20049;-79
2022/03/28 10:00:59;;;;;;;9.32;3.58;;;;;;;;;;5034445;28;20124;-79
2022/03/28 10:03:32;;;;;;;9.00;3.72;;;;;;;;;;5034451;28;20107;-79
2022/03/28 10:06:01;;;;;;;6.00;2.92;;;;;;;;;;5033527;28;20106;-79
2022/03/28 10:08:28;;;;;;;4.22;2.78;;;;;;;;;;5035674;28;20099;-79
2022/03/28 10:10:59;;;;;;;6.35;3.22;;;;;;;;;;5029969;28;20553;-79
2022/03/28 10:13:29;;;;;;;8.55;2.65;;;;;;;;;;5030641;28;20156;-79
2022/03/28 10:15:58;;;;;;;8.20;3.05;;;;;;;;;;5035275;28;20786;-79
2022/03/28 10:18:32;;;;;;;12.40;3.05;;;;;;;;;;5035229;28;20051;-79
2022/03/28 10:21:02;;;;;;;4.65;2.58;;;;;;;;;;5035676;28;20565;-79
2022/03/28 10:23:33;;;;;;;5.53;2.75;;;;;;;;;;5034836;28;20140;-79
2022/03/28 10:26:02;;;;;;;15.23;3.15;;;;;;;;;;5031603;28;20140;-79
2022/03/28 10:28:29;;;;;;;4.50;2.83;;;;;;;;;;5032801;28;20146;-79
2022/03/28 10:31:09;;;;;;;9.88;2.85;;;;;;;;;;5033842;28;20124;-78
2022/03/28 10:33:57;;;;;;;5.03;2.80;;;;;;;;;;5039787;28;20049;-78
2022/03/28 10:36:29;;;;;;;8.05;2.53;;;;;;;;;;5031185;28;20056;-78
2022/03/28 10:39:16;;;;;;;6.13;3.10;;;;;;;;;;5032175;28;20053;-78
2022/03/28 10:41:43;;;;;;;18.67;3.35;;;;;;;;;;5028484;28;20115;-78
2022/03/28 10:44:10;;;;;;;10.57;3.08;;;;;;;;;;5035469;28;20569;-79
2022/03/28 10:46:38;;;;;;;8.95;2.53;;;;;;;;;;5034607;28;20120;-79
2022/03/28 10:49:07;;;;;;;3.15;2.08;;;;;;;;;;5034133;28;20132;-79
2022/03/28 10:51:34;;;;;;;4.25;2.30;;;;;;;;;;5031507;28;20073;-78
2022/03/28 10:54:05;;;;;;;7.00;2.28;;;;;;;;;;5032356;28;20061;-78
2022/03/28 10:56:40;;;;;;;3.20;2.28;;;;;;;;;;5027645;28;20144;-78
2022/03/28 10:59:09;;;;;;;14.88;3.55;;;;;;;;;;5033500;28;20060;-79
2022/03/28 11:01:37;;;;;;;4.72;2.25;;;;;;;;;;5027370;28;20128;-79
2022/03/28 11:04:16;;;;;;;6.10;2.65;;;;;;;;;;5030810;28;20052;-79
2022/03/28 11:06:44;;;;;;;7.07;2.88;;;;;;;;;;5033456;28;20045;-78
2022/03/28 11:09:12;;;;;;;3.92;2.55;;;;;;;;;;5031746;28;20092;-78
2022/03/28 11:11:58;;;;;;;4.90;2.58;;;;;;;;;;5031719;28;20048;-78
2022/03/28 11:14:44;;;;;;;7.38;2.83;;;;;;;;;;5026889;28;20060;-79
2022/03/28 11:17:17;;;;;;;13.98;3.08;;;;;;;;;;5034810;28;20048;-79
2022/03/28 11:19:51;;;;;;;16.48;2.67;;;;;;;;;;5035982;28;20214;-79
2022/03/28 11:22:37;;;;;;;13.30;2.73;;;;;;;;;;5036130;28;20681;-79
2022/03/28 11:25:05;;;;;;;9.88;3.75;;;;;;;;;;5036013;28;20877;-78
2022/03/28 11:27:34;;;;;;;7.15;2.45;;;;;;;;;;5041790;28;20076;-79
2022/03/28 11:30:03;;;;;;;5.38;2.90;;;;;;;;;;5036631;28;21115;-78
2022/03/28 11:32:31;;;;;;;8.45;3.47;;;;;;;;;;5041648;28;20801;-79
2022/03/28 11:34:59;;;;;;;6.20;2.60;;;;;;;;;;5037364;28;20402;-79
2022/03/28 11:37:27;;;;;;;2.90;2.60;;;;;;;;;;5036235;28;20107;-81
2022/03/28 11:39:56;;;;;;;4.45;2.30;;;;;;;;;;5038306;28;20045;-81
2022/03/28 11:42:24;;;;;;;3.08;2.72;;;;;;;;;;5039517;28;20134;-81
2022/03/28 11:44:51;;;;;;;7.43;3.03;;;;;;;;;;5038040;28;20080;-81
2022/03/28 11:47:19;;;;;;;9.05;4.05;;;;;;;;;;5038987;28;20144;-81
2022/03/28 11:49:53;;;;;;;6.43;3.22;;;;;;;;;;5034620;28;20053;-82
2022/03/28 11:52:20;;;;;;;5.13;3.00;;;;;;;;;;5042667;28;20468;-82
2022/03/28 11:54:48;;;;;;;25.50;3.45;;;;;;;;;;5038785;28;20128;-81
2022/03/28 12:00:13;;;;;;;7.32;3.50;;;;;;;;;;5039854;28;20160;-81
2022/03/28 12:02:47;;;;;;;4.60;3.28;;;;;;;;;;5043910;28;20080;-80
2022/03/28 12:05:24;;;;;;;5.70;3.40;;;;;;;;;;5037101;28;20060;-81
2022/03/28 12:07:52;;;;;;;5.85;2.88;;;;;;;;;;5036603;28;20159;-81
2022/03/28 12:10:23;;;;;;;11.85;3.50;;;;;;;;;;5039863;28;20041;-82
2022/03/28 12:12:50;;;;;;;5.18;3.25;;;;;;;;;;5030875;28;20072;-81
2022/03/28 12:15:28;;;;;;;10.45;3.65;;;;;;;;;;5037499;28;20135;-82
2022/03/28 12:17:58;;;;;;;8.48;2.92;;;;;;;;;;5034328;28;20084;-81
2022/03/28 12:20:30;;;;;;;4.97;3.00;;;;;;;;;;5037146;28;20172;-81
2022/03/28 12:22:58;;;;;;;6.50;4.00;;;;;;;;;;5029268;28;20076;-81
2022/03/28 12:25:30;;;;;;;4.05;3.40;;;;;;;;;;5037004;28;20053;-82
2022/03/28 12:27:59;;;;;;;10.00;4.22;;;;;;;;;;5036823;28;20160;-81
2022/03/28 12:30:31;;;;;;;11.70;3.67;;;;;;;;;;5034219;28;20088;-81
2022/03/28 12:32:58;;;;;;;5.72;3.47;;;;;;;;;;5038241;28;20072;-82
2022/03/28 12:35:26;;;;;;;8.77;3.10;;;;;;;;;;5035983;28;20041;-81
2022/03/28 12:37:57;;;;;;;14.93;5.32;;;;;;;;;;5042142;28;20126;-81
2022/03/28 12:40:28;;;;;;;8.13;4.25;;;;;;;;;;5037645;28;20099;-81
2022/03/28 12:42:56;;;;;;;7.30;4.07;;;;;;;;;;5033730;28;20086;-81
2022/03/28 12:45:27;;;;;;;10.88;3.83;;;;;;;;;;5035494;28;20059;-81
2022/03/28 12:48:05;;;;;;;7.03;3.92;;;;;;;;;;5028798;28;20053;-80
2022/03/28 12:50:34;;;;;;;5.90;3.70;;;;;;;;;;5037185;28;20099;-79
2022/03/28 12:53:08;;;;;;;5.25;3.33;;;;;;;;;;5036400;28;20132;-79
2022/03/28 12:55:35;;;;;;;10.95;4.63;;;;;;;;;;5036626;28;20131;-78
2022/03/28 12:58:03;;;;;;;8.20;3.58;;;;;;;;;;5037345;28;20686;-77
2022/03/28 13:00:31;;;;;;;9.73;3.92;;;;;;;;;;5034808;28;20172;-78
2022/03/28 13:03:01;;;;;;;6.50;4.38;;;;;;;;;;5037618;28;20092;-79
2022/03/28 13:05:34;;;;;;;7.70;4.47;;;;;;;;;;5036540;28;20117;-77
2022/03/28 13:08:11;;;;;;;4.88;3.97;;;;;;;;;;5037917;28;20094;-77
2022/03/28 13:10:39;;;;;;;6.57;4.70;;;;;;;;;;5036177;28;20410;-79
2022/03/28 13:13:07;;;;;;;7.78;4.32;;;;;;;;;;5029650;28;20049;-78
2022/03/28 13:15:39;;;;;;;13.95;4.50;;;;;;;;;;5034648;28;20144;-80
2022/03/28 13:18:11;;;;;;;18.13;8.50;;;;;;;;;;5031868;28;22204;-81
2022/03/28 13:20:42;;;;;;;;;;;;;;;;;;5036413;28;20787;-77
2022/03/28 13:23:20;;;;;;;14.60;5.28;;;;;;;;;;5037846;28;20426;-77
2022/03/28 13:25:48;;;;;;;11.15;4.97;;;;;;;;;;5033737;28;20045;-77
2022/03/28 13:28:16;;;;;;;7.55;4.90;;;;;;;;;;5034664;28;20178;-76
2022/03/28 13:30:45;;;;;;;8.90;4.97;;;;;;;;;;5038773;28;20153;-78
2022/03/28 13:33:13;;;;;;;7.38;4.78;;;;;;;;;;5035898;28;20059;-77
2022/03/28 13:35:41;;;;;;;9.02;4.22;;;;;;;;;;5037252;28;20077;-78
2022/03/28 13:38:10;;;;;;;7.43;4.43;;;;;;;;;;5035991;28;20053;-79
2022/03/28 13:40:38;;;;;;;11.38;4.97;;;;;;;;;;5032156;28;20096;-79
2022/03/28 13:43:06;;;;;;;9.43;4.65;;;;;;;;;;5037416;28;20049;-80
2022/03/28 13:45:33;;;;;;;7.85;4.82;;;;;;;;;;5037481;28;20080;-80
2022/03/28 13:48:05;;;;;;;12.95;5.38;;;;;;;;;;5041198;28;20055;-81
2022/03/28 13:50:33;;;;;;;13.07;5.00;;;;;;;;;;5039100;28;20045;-81
2022/03/28 13:53:20;;;;;;;13.27;4.80;;;;;;;;;;5034624;28;20047;-81
2022/03/28 13:55:47;;;;;;;13.18;5.90;;;;;;;;;;5039074;28;20080;-81
2022/03/28 13:58:15;;;;;;;13.55;5.90;;;;;;;;;;5037991;28;20162;-81
2022/03/28 14:00:45;;;;;;;13.23;5.57;;;;;;;;;;5040519;28;20577;-81
2022/03/28 14:03:12;;;;;;;11.40;4.90;;;;;;;;;;5041695;28;20049;-81
2022/03/28 14:05:40;;;;;;;7.82;4.43;;;;;;;;;;5043017;28;20087;-82
2022/03/28 14:08:09;;;;;;;10.25;4.68;;;;;;;;;;5040672;28;20140;-80
2022/03/28 14:10:37;;;;;;;49.78;6.53;;;;;;;;;;5035528;28;20045;-81
2022/03/28 14:13:04;;;;;;;9.65;5.45;;;;;;;;;;5039081;28;20099;-80
2022/03/28 14:15:32;;;;;;;10.32;5.60;;;;;;;;;;5030745;28;21078;-79
2022/03/28 14:17:59;;;;;;;338.23;20.42;;;;;;;;;;5033381;28;20108;-79
2022/03/28 14:20:27;;;;;;;9.57;5.50;;;;;;;;;;5037474;28;20129;-80
2022/03/28 14:22:54;;;;;;;9.18;5.90;;;;;;;;;;5035299;28;20144;-77
2022/03/28 14:25:22;;;;;;;7.70;5.40;;;;;;;;;;5035103;28;20049;-80
2022/03/28 14:27:50;;;;;;;9.13;5.28;;;;;;;;;;5034225;28;20194;-80
2022/03/28 14:30:19;;;;;;;16.00;6.60;;;;;;;;;;5040159;28;20131;-79
2022/03/28 14:32:48;;;;;;;13.02;6.63;;;;;;;;;;5024656;28;20049;-78
2022/03/28 14:35:16;;;;;;;13.45;5.47;;;;;;;;;;5037565;28;20171;-78
2022/03/28 14:37:44;;;;;;;10.85;6.03;;;;;;;;;;5038279;28;20053;-77
2022/03/28 14:40:18;;;;;;;9.13;5.80;;;;;;;;;;5036560;28;20882;-76
2022/03/28 14:42:46;;;;;;;;;;;;;;;;;;5031800;28;20374;-77
2022/03/28 14:45:17;;;;;;;14.82;6.63;;;;;;;;;;5033024;28;19968;-77
2022/03/28 14:47:44;;;;;;;12.73;6.43;;;;;;;;;;5035265;28;20157;-78
2022/03/28 14:50:12;;;;;;;9.70;6.47;;;;;;;;;;5038013;28;20045;-79